map of ZOS home
ZOS - Airport
Location
City:  Osorno, Los Lagos, Chile
Name:Caņal Bajo-Carlos Hott Siebert Airport
ICAO:SCJO
IATA:ZOS

Details
Type:Airport (Aerodrome, Airfield)
Use:Public/Civil
Latitude:40°36'41"S (-40.611388)
Longitude:73°03'38"W (-73.060555)
Elevation:187 ft (57 m)
Variation:7.87°E (WMM2015 magnetic declination)
-0.12° annual change
Runways:1
Longest:5577 × 148 ft (1700 × 45 m), paved

Time
Time Zone:UTC-4 (DST-3)
Local Time:

Weather
METAR:SCJO 161500Z VRB02KT 9999 BKN020 19/13 Q1016
TAF:SCJO 161013Z 1612/1624 33005KT 9999 SCT016 OVC025 TN11/1612Z TX17/1619Z
TEMPO 1612/1616 23010KT 5000 -DZRA BKN008 OVC014
BECMG 1617/1619 19015KT SCT016 BKN040
BECMG 1621/1623 18010KT CAVOK

Related Locations
Nearby:
Farthest:RLK: 12391 mi / 19941 km
Bayannur [Bayannur Tianjitai Airport], 15, CN

Find:

   beyond  
but within

Other Information
Maps:
NOTAMs:
Links:
Sources:

  
  • flag of Chile
  • flag of Los Lagos
  

Sectional Chart

Flight Planning
at skyvector.com

Satellite Image

Google Maps Satellite view

 

Copyright © 2004-2018 Karl L. Swartz. All rights reserved.
The Great Circle Mapper name and logo are trademarks of the Great Circle Mapper.
All other trademarks mentioned herein belong to their respective owners.
Please see credits for attibutions and further copyright information.

  Follow gcmap on Facebook Follow gcmap on Twitter Follow gcmap on Google+ GCmap on LinkedIn

hCard Microformat

Geo Microformat